sensor_id;sensor_type;location;lat;lon;timestamp;P1;durP1;ratioP1;P2;durP2;ratioP2
3085;SDS011;52812;48.960;9.108;2023-07-29T00:01:41;7.50;;;5.27;;
3085;SDS011;52812;48.960;9.108;2023-07-29T00:04:07;6.83;;;5.00;;
3085;SDS011;52812;48.960;9.108;2023-07-29T00:06:34;5.80;;;4.83;;
3085;SDS011;52812;48.960;9.108;2023-07-29T00:09:00;6.70;;;4.83;;
3085;SDS011;52812;48.960;9.108;2023-07-29T00:11:25;6.67;;;5.33;;
3085;SDS011;52812;48.960;9.108;2023-07-29T00:13:51;7.03;;;5.43;;
3085;SDS011;52812;48.960;9.108;2023-07-29T00:16:17;6.53;;;5.03;;
3085;SDS011;52812;48.960;9.108;2023-07-29T00:18:46;6.93;;;5.50;;
3085;SDS011;52812;48.960;9.108;2023-07-29T00:21:12;5.10;;;4.60;;
3085;SDS011;52812;48.960;9.108;2023-07-29T00:23:38;6.00;;;4.80;;
3085;SDS011;52812;48.960;9.108;2023-07-29T00:26:03;9.13;;;5.20;;
3085;SDS011;52812;48.960;9.108;2023-07-29T00:28:29;9.70;;;4.87;;
3085;SDS011;52812;48.960;9.108;2023-07-29T00:30:54;8.97;;;4.57;;
3085;SDS011;52812;48.960;9.108;2023-07-29T00:33:20;7.17;;;4.90;;
3085;SDS011;52812;48.960;9.108;2023-07-29T00:35:46;6.33;;;4.80;;
3085;SDS011;52812;48.960;9.108;2023-07-29T00:38:11;6.77;;;4.53;;
3085;SDS011;52812;48.960;9.108;2023-07-29T00:40:37;6.03;;;4.40;;
3085;SDS011;52812;48.960;9.108;2023-07-29T00:43:03;5.53;;;4.50;;
3085;SDS011;52812;48.960;9.108;2023-07-29T00:45:29;6.43;;;4.73;;
3085;SDS011;52812;48.960;9.108;2023-07-29T00:47:55;4.63;;;4.13;;
3085;SDS011;52812;48.960;9.108;2023-07-29T00:50:21;6.17;;;4.70;;
3085;SDS011;52812;48.960;9.108;2023-07-29T00:52:47;5.70;;;4.40;;
3085;SDS011;52812;48.960;9.108;2023-07-29T00:55:14;7.23;;;4.93;;
3085;SDS011;52812;48.960;9.108;2023-07-29T00:57:39;5.30;;;4.30;;
3085;SDS011;52812;48.960;9.108;2023-07-29T01:00:06;7.17;;;4.87;;
3085;SDS011;52812;48.960;9.108;2023-07-29T01:02:33;5.27;;;4.77;;
3085;SDS011;52812;48.960;9.108;2023-07-29T01:05:02;7.00;;;4.37;;
3085;SDS011;52812;48.960;9.108;2023-07-29T01:10:22;5.97;;;4.53;;
3085;SDS011;52812;48.960;9.108;2023-07-29T01:13:13;6.30;;;4.33;;
3085;SDS011;52812;48.960;9.108;2023-07-29T01:15:54;5.40;;;4.40;;
3085;SDS011;52812;48.960;9.108;2023-07-29T01:18:28;5.10;;;4.07;;
3085;SDS011;52812;48.960;9.108;2023-07-29T01:20:59;5.73;;;4.33;;
3085;SDS011;52812;48.960;9.108;2023-07-29T01:23:29;6.73;;;4.37;;
3085;SDS011;52812;48.960;9.108;2023-07-29T01:25:59;5.80;;;4.63;;
3085;SDS011;52812;48.960;9.108;2023-07-29T01:28:25;6.00;;;4.60;;
3085;SDS011;52812;48.960;9.108;2023-07-29T01:30:52;6.67;;;4.80;;
3085;SDS011;52812;48.960;9.108;2023-07-29T01:33:25;6.80;;;4.50;;
3085;SDS011;52812;48.960;9.108;2023-07-29T01:35:58;7.33;;;4.30;;
3085;SDS011;52812;48.960;9.108;2023-07-29T01:38:29;6.40;;;4.60;;
3085;SDS011;52812;48.960;9.108;2023-07-29T01:41:04;5.57;;;4.13;;
3085;SDS011;52812;48.960;9.108;2023-07-29T01:43:32;7.23;;;4.57;;
3085;SDS011;52812;48.960;9.108;2023-07-29T01:45:58;6.90;;;4.13;;
3085;SDS011;52812;48.960;9.108;2023-07-29T01:48:26;6.67;;;4.43;;
3085;SDS011;52812;48.960;9.108;2023-07-29T01:50:52;4.63;;;4.03;;
3085;SDS011;52812;48.960;9.108;2023-07-29T01:53:18;6.30;;;4.30;;
3085;SDS011;52812;48.960;9.108;2023-07-29T01:55:44;5.80;;;4.10;;
3085;SDS011;52812;48.960;9.108;2023-07-29T01:58:10;6.03;;;3.87;;
3085;SDS011;52812;48.960;9.108;2023-07-29T02:00:36;5.93;;;3.80;;
3085;SDS011;52812;48.960;9.108;2023-07-29T02:03:01;5.00;;;4.03;;
3085;SDS011;52812;48.960;9.108;2023-07-29T02:05:27;5.17;;;3.97;;
3085;SDS011;52812;48.960;9.108;2023-07-29T02:07:52;5.60;;;3.70;;
3085;SDS011;52812;48.960;9.108;2023-07-29T02:10:18;5.07;;;4.00;;
3085;SDS011;52812;48.960;9.108;2023-07-29T02:12:44;4.20;;;3.30;;
3085;SDS011;52812;48.960;9.108;2023-07-29T02:15:09;4.50;;;3.57;;
3085;SDS011;52812;48.960;9.108;2023-07-29T02:17:35;5.07;;;3.80;;
3085;SDS011;52812;48.960;9.108;2023-07-29T02:20:01;7.30;;;3.53;;
3085;SDS011;52812;48.960;9.108;2023-07-29T02:22:28;5.40;;;3.63;;
3085;SDS011;52812;48.960;9.108;2023-07-29T02:24:54;4.43;;;3.57;;
3085;SDS011;52812;48.960;9.108;2023-07-29T02:27:20;5.20;;;3.80;;
3085;SDS011;52812;48.960;9.108;2023-07-29T02:29:45;5.33;;;4.07;;
3085;SDS011;52812;48.960;9.108;2023-07-29T02:32:11;4.80;;;3.63;;
3085;SDS011;52812;48.960;9.108;2023-07-29T02:34:37;5.13;;;3.80;;
3085;SDS011;52812;48.960;9.108;2023-07-29T02:37:02;5.00;;;3.87;;
3085;SDS011;52812;48.960;9.108;2023-07-29T02:39:28;4.47;;;3.60;;
3085;SDS011;52812;48.960;9.108;2023-07-29T02:41:53;4.27;;;3.30;;
3085;SDS011;52812;48.960;9.108;2023-07-29T02:44:20;4.50;;;3.80;;
3085;SDS011;52812;48.960;9.108;2023-07-29T02:46:46;3.87;;;3.30;;
3085;SDS011;52812;48.960;9.108;2023-07-29T02:49:11;5.20;;;3.80;;
3085;SDS011;52812;48.960;9.108;2023-07-29T02:51:37;4.50;;;3.70;;
3085;SDS011;52812;48.960;9.108;2023-07-29T02:54:02;5.17;;;3.70;;
3085;SDS011;52812;48.960;9.108;2023-07-29T02:56:28;4.63;;;3.50;;
3085;SDS011;52812;48.960;9.108;2023-07-29T02:58:55;4.13;;;3.40;;
3085;SDS011;52812;48.960;9.108;2023-07-29T03:01:21;5.77;;;3.43;;
3085;SDS011;52812;48.960;9.108;2023-07-29T03:03:47;5.53;;;3.50;;
3085;SDS011;52812;48.960;9.108;2023-07-29T03:06:13;4.20;;;2.80;;
3085;SDS011;52812;48.960;9.108;2023-07-29T03:08:39;4.00;;;3.40;;
3085;SDS011;52812;48.960;9.108;2023-07-29T03:11:09;4.77;;;4.27;;
3085;SDS011;52812;48.960;9.108;2023-07-29T03:13:36;4.13;;;3.40;;
3085;SDS011;52812;48.960;9.108;2023-07-29T03:16:11;4.47;;;3.63;;
3085;SDS011;52812;48.960;9.108;2023-07-29T03:18:42;8.73;;;3.37;;
3085;SDS011;52812;48.960;9.108;2023-07-29T03:21:08;4.00;;;3.30;;
3085;SDS011;52812;48.960;9.108;2023-07-29T03:23:35;3.50;;;3.10;;
3085;SDS011;52812;48.960;9.108;2023-07-29T03:26:01;5.10;;;3.13;;
3085;SDS011;52812;48.960;9.108;2023-07-29T03:28:30;4.20;;;3.37;;
3085;SDS011;52812;48.960;9.108;2023-07-29T03:30:57;5.10;;;4.60;;
3085;SDS011;52812;48.960;9.108;2023-07-29T03:33:24;3.23;;;2.90;;
3085;SDS011;52812;48.960;9.108;2023-07-29T03:35:50;3.30;;;3.00;;
3085;SDS011;52812;48.960;9.108;2023-07-29T03:38:16;3.93;;;3.07;;
3085;SDS011;52812;48.960;9.108;2023-07-29T03:40:42;4.87;;;3.30;;
3085;SDS011;52812;48.960;9.108;2023-07-29T03:43:08;3.27;;;2.87;;
3085;SDS011;52812;48.960;9.108;2023-07-29T03:45:34;4.10;;;3.40;;
3085;SDS011;52812;48.960;9.108;2023-07-29T03:48:00;4.10;;;3.20;;
3085;SDS011;52812;48.960;9.108;2023-07-29T03:50:26;3.80;;;3.20;;
3085;SDS011;52812;48.960;9.108;2023-07-29T03:52:52;4.27;;;3.33;;
3085;SDS011;52812;48.960;9.108;2023-07-29T03:55:18;5.43;;;3.20;;
3085;SDS011;52812;48.960;9.108;2023-07-29T03:57:44;6.00;;;3.10;;
3085;SDS011;52812;48.960;9.108;2023-07-29T04:00:09;4.07;;;3.07;;
3085;SDS011;52812;48.960;9.108;2023-07-29T04:02:35;4.37;;;3.40;;
3085;SDS011;52812;48.960;9.108;2023-07-29T04:05:04;6.00;;;3.40;;
3085;SDS011;52812;48.960;9.108;2023-07-29T04:07:31;4.37;;;2.93;;
3085;SDS011;52812;48.960;9.108;2023-07-29T04:09:57;3.60;;;3.23;;
3085;SDS011;52812;48.960;9.108;2023-07-29T04:12:23;3.80;;;2.97;;
3085;SDS011;52812;48.960;9.108;2023-07-29T04:14:49;3.63;;;2.83;;
3085;SDS011;52812;48.960;9.108;2023-07-29T04:17:15;3.80;;;3.07;;
3085;SDS011;52812;48.960;9.108;2023-07-29T04:19:40;3.67;;;2.83;;
3085;SDS011;52812;48.960;9.108;2023-07-29T04:22:06;3.63;;;2.80;;
3085;SDS011;52812;48.960;9.108;2023-07-29T04:24:32;3.10;;;2.53;;
3085;SDS011;52812;48.960;9.108;2023-07-29T04:26:57;4.90;;;3.03;;
3085;SDS011;52812;48.960;9.108;2023-07-29T04:29:23;3.33;;;2.90;;
3085;SDS011;52812;48.960;9.108;2023-07-29T04:31:52;3.03;;;2.50;;
3085;SDS011;52812;48.960;9.108;2023-07-29T04:34:18;3.57;;;2.60;;
3085;SDS011;52812;48.960;9.108;2023-07-29T04:36:44;3.43;;;2.23;;
3085;SDS011;52812;48.960;9.108;2023-07-29T04:39:10;2.70;;;2.50;;
3085;SDS011;52812;48.960;9.108;2023-07-29T04:41:36;3.63;;;3.10;;
3085;SDS011;52812;48.960;9.108;2023-07-29T04:44:01;3.37;;;2.70;;
3085;SDS011;52812;48.960;9.108;2023-07-29T04:46:27;4.03;;;3.00;;
3085;SDS011;52812;48.960;9.108;2023-07-29T04:48:52;5.30;;;2.40;;
3085;SDS011;52812;48.960;9.108;2023-07-29T04:51:18;5.83;;;3.17;;
3085;SDS011;52812;48.960;9.108;2023-07-29T04:53:43;5.07;;;2.90;;
3085;SDS011;52812;48.960;9.108;2023-07-29T04:56:09;4.73;;;2.60;;
3085;SDS011;52812;48.960;9.108;2023-07-29T04:58:34;3.20;;;2.90;;
3085;SDS011;52812;48.960;9.108;2023-07-29T05:01:01;7.20;;;2.80;;
3085;SDS011;52812;48.960;9.108;2023-07-29T05:03:27;6.57;;;2.40;;
3085;SDS011;52812;48.960;9.108;2023-07-29T05:05:53;2.70;;;2.43;;
3085;SDS011;52812;48.960;9.108;2023-07-29T05:08:20;4.53;;;2.37;;
3085;SDS011;52812;48.960;9.108;2023-07-29T05:10:49;2.40;;;2.20;;
3085;SDS011;52812;48.960;9.108;2023-07-29T05:13:16;3.93;;;2.60;;
3085;SDS011;52812;48.960;9.108;2023-07-29T05:15:41;3.17;;;2.20;;
3085;SDS011;52812;48.960;9.108;2023-07-29T05:18:07;3.30;;;2.23;;
3085;SDS011;52812;48.960;9.108;2023-07-29T05:20:32;3.87;;;2.80;;
3085;SDS011;52812;48.960;9.108;2023-07-29T05:22:58;3.03;;;2.40;;
3085;SDS011;52812;48.960;9.108;2023-07-29T05:25:23;2.20;;;2.00;;
3085;SDS011;52812;48.960;9.108;2023-07-29T05:27:49;2.97;;;2.47;;
3085;SDS011;52812;48.960;9.108;2023-07-29T05:30:14;3.87;;;2.30;;
3085;SDS011;52812;48.960;9.108;2023-07-29T05:32:40;4.07;;;2.53;;
3085;SDS011;52812;48.960;9.108;2023-07-29T05:35:06;3.50;;;2.77;;
3085;SDS011;52812;48.960;9.108;2023-07-29T05:37:31;2.90;;;2.03;;
3085;SDS011;52812;48.960;9.108;2023-07-29T05:39:57;2.90;;;2.10;;
3085;SDS011;52812;48.960;9.108;2023-07-29T05:42:23;2.77;;;2.07;;
3085;SDS011;52812;48.960;9.108;2023-07-29T05:44:48;3.70;;;2.60;;
3085;SDS011;52812;48.960;9.108;2023-07-29T05:47:14;3.10;;;2.17;;
3085;SDS011;52812;48.960;9.108;2023-07-29T05:49:39;3.27;;;2.53;;
3085;SDS011;52812;48.960;9.108;2023-07-29T05:52:05;4.10;;;2.30;;
3085;SDS011;52812;48.960;9.108;2023-07-29T05:54:31;3.20;;;2.60;;
3085;SDS011;52812;48.960;9.108;2023-07-29T05:56:56;4.03;;;2.47;;
3085;SDS011;52812;48.960;9.108;2023-07-29T05:59:22;2.77;;;2.40;;
3085;SDS011;52812;48.960;9.108;2023-07-29T06:01:47;2.83;;;2.20;;
3085;SDS011;52812;48.960;9.108;2023-07-29T06:04:13;5.40;;;3.00;;
3085;SDS011;52812;48.960;9.108;2023-07-29T06:06:38;2.93;;;2.00;;
3085;SDS011;52812;48.960;9.108;2023-07-29T06:09:04;2.90;;;2.30;;
3085;SDS011;52812;48.960;9.108;2023-07-29T06:11:29;3.00;;;2.20;;
3085;SDS011;52812;48.960;9.108;2023-07-29T06:13:55;3.10;;;2.23;;
3085;SDS011;52812;48.960;9.108;2023-07-29T06:16:20;2.47;;;2.20;;
3085;SDS011;52812;48.960;9.108;2023-07-29T06:18:46;3.43;;;2.40;;
3085;SDS011;52812;48.960;9.108;2023-07-29T06:21:11;4.53;;;2.17;;
3085;SDS011;52812;48.960;9.108;2023-07-29T06:23:42;2.53;;;2.17;;
3085;SDS011;52812;48.960;9.108;2023-07-29T06:26:10;2.87;;;2.10;;
3085;SDS011;52812;48.960;9.108;2023-07-29T06:28:36;4.47;;;1.93;;
3085;SDS011;52812;48.960;9.108;2023-07-29T06:31:01;2.97;;;2.43;;
3085;SDS011;52812;48.960;9.108;2023-07-29T06:33:27;2.53;;;2.20;;
3085;SDS011;52812;48.960;9.108;2023-07-29T06:35:53;2.17;;;1.87;;
3085;SDS011;52812;48.960;9.108;2023-07-29T06:38:18;2.40;;;2.20;;
3085;SDS011;52812;48.960;9.108;2023-07-29T06:40:46;2.10;;;1.80;;
3085;SDS011;52812;48.960;9.108;2023-07-29T06:43:13;2.33;;;2.10;;
3085;SDS011;52812;48.960;9.108;2023-07-29T06:45:38;2.77;;;2.20;;
3085;SDS011;52812;48.960;9.108;2023-07-29T06:48:04;3.63;;;2.17;;
3085;SDS011;52812;48.960;9.108;2023-07-29T06:50:30;1.73;;;1.60;;
3085;SDS011;52812;48.960;9.108;2023-07-29T06:52:55;1.80;;;1.60;;
3085;SDS011;52812;48.960;9.108;2023-07-29T06:55:21;2.67;;;1.90;;
3085;SDS011;52812;48.960;9.108;2023-07-29T06:57:46;2.20;;;2.00;;
3085;SDS011;52812;48.960;9.108;2023-07-29T07:00:12;1.90;;;1.60;;
3085;SDS011;52812;48.960;9.108;2023-07-29T07:02:38;3.20;;;1.87;;
3085;SDS011;52812;48.960;9.108;2023-07-29T07:05:03;2.17;;;1.97;;
3085;SDS011;52812;48.960;9.108;2023-07-29T07:07:30;2.10;;;1.83;;
3085;SDS011;52812;48.960;9.108;2023-07-29T07:09:56;2.27;;;1.80;;
3085;SDS011;52812;48.960;9.108;2023-07-29T07:12:21;1.80;;;1.67;;
3085;SDS011;52812;48.960;9.108;2023-07-29T07:14:47;1.90;;;1.60;;
3085;SDS011;52812;48.960;9.108;2023-07-29T07:17:13;2.30;;;1.97;;
3085;SDS011;52812;48.960;9.108;2023-07-29T07:19:38;2.23;;;1.63;;
3085;SDS011;52812;48.960;9.108;2023-07-29T07:22:04;2.53;;;1.47;;
3085;SDS011;52812;48.960;9.108;2023-07-29T07:24:30;3.30;;;1.60;;
3085;SDS011;52812;48.960;9.108;2023-07-29T07:26:56;1.93;;;1.80;;
3085;SDS011;52812;48.960;9.108;2023-07-29T07:29:21;2.10;;;1.90;;
3085;SDS011;52812;48.960;9.108;2023-07-29T07:31:51;2.37;;;2.10;;
3085;SDS011;52812;48.960;9.108;2023-07-29T07:34:18;2.90;;;1.87;;
3085;SDS011;52812;48.960;9.108;2023-07-29T07:36:47;3.00;;;1.97;;
3085;SDS011;52812;48.960;9.108;2023-07-29T07:39:14;2.60;;;2.10;;
3085;SDS011;52812;48.960;9.108;2023-07-29T07:41:40;2.13;;;1.63;;
3085;SDS011;52812;48.960;9.108;2023-07-29T07:44:06;2.87;;;1.80;;
3085;SDS011;52812;48.960;9.108;2023-07-29T07:46:32;1.80;;;1.70;;
3085;SDS011;52812;48.960;9.108;2023-07-29T07:48:57;2.10;;;1.80;;
3085;SDS011;52812;48.960;9.108;2023-07-29T07:51:23;2.30;;;1.73;;
3085;SDS011;52812;48.960;9.108;2023-07-29T07:53:49;3.67;;;1.80;;
3085;SDS011;52812;48.960;9.108;2023-07-29T07:56:14;1.93;;;1.60;;
3085;SDS011;52812;48.960;9.108;2023-07-29T07:58:40;2.00;;;1.57;;
3085;SDS011;52812;48.960;9.108;2023-07-29T08:01:06;2.20;;;1.80;;
3085;SDS011;52812;48.960;9.108;2023-07-29T08:03:34;2.87;;;1.80;;
3085;SDS011;52812;48.960;9.108;2023-07-29T08:06:04;1.90;;;1.70;;
3085;SDS011;52812;48.960;9.108;2023-07-29T08:08:29;1.90;;;1.70;;
3085;SDS011;52812;48.960;9.108;2023-07-29T08:10:56;2.00;;;1.60;;
3085;SDS011;52812;48.960;9.108;2023-07-29T08:13:22;1.80;;;1.60;;
3085;SDS011;52812;48.960;9.108;2023-07-29T08:15:49;2.10;;;1.57;;
3085;SDS011;52812;48.960;9.108;2023-07-29T08:18:17;2.97;;;1.50;;
3085;SDS011;52812;48.960;9.108;2023-07-29T08:23:24;1.60;;;1.50;;
3085;SDS011;52812;48.960;9.108;2023-07-29T08:25:54;1.60;;;1.30;;
3085;SDS011;52812;48.960;9.108;2023-07-29T08:28:24;3.20;;;1.30;;
3085;SDS011;52812;48.960;9.108;2023-07-29T08:30:49;1.60;;;1.50;;
3085;SDS011;52812;48.960;9.108;2023-07-29T08:33:15;1.50;;;1.40;;
3085;SDS011;52812;48.960;9.108;2023-07-29T08:35:41;1.40;;;1.30;;
3085;SDS011;52812;48.960;9.108;2023-07-29T08:38:07;1.60;;;1.50;;
3085;SDS011;52812;48.960;9.108;2023-07-29T08:40:33;1.63;;;1.53;;
3085;SDS011;52812;48.960;9.108;2023-07-29T08:43:03;2.20;;;1.60;;
3085;SDS011;52812;48.960;9.108;2023-07-29T08:45:34;1.77;;;1.60;;
3085;SDS011;52812;48.960;9.108;2023-07-29T08:48:02;2.10;;;1.57;;
3085;SDS011;52812;48.960;9.108;2023-07-29T08:50:32;4.17;;;1.50;;
3085;SDS011;52812;48.960;9.108;2023-07-29T08:52:58;2.10;;;1.73;;
3085;SDS011;52812;48.960;9.108;2023-07-29T08:55:25;2.07;;;1.43;;
3085;SDS011;52812;48.960;9.108;2023-07-29T08:57:51;1.60;;;1.50;;
3085;SDS011;52812;48.960;9.108;2023-07-29T09:00:17;1.73;;;1.40;;
3085;SDS011;52812;48.960;9.108;2023-07-29T09:02:43;1.70;;;1.57;;
3085;SDS011;52812;48.960;9.108;2023-07-29T09:05:08;2.67;;;1.50;;
3085;SDS011;52812;48.960;9.108;2023-07-29T09:07:34;2.43;;;1.50;;
3085;SDS011;52812;48.960;9.108;2023-07-29T09:10:02;2.03;;;1.13;;
3085;SDS011;52812;48.960;9.108;2023-07-29T09:12:27;1.50;;;1.40;;
3085;SDS011;52812;48.960;9.108;2023-07-29T09:14:53;1.57;;;1.33;;
3085;SDS011;52812;48.960;9.108;2023-07-29T09:17:21;2.07;;;1.50;;
3085;SDS011;52812;48.960;9.108;2023-07-29T09:19:50;1.63;;;1.53;;
3085;SDS011;52812;48.960;9.108;2023-07-29T09:22:17;1.53;;;1.43;;
3085;SDS011;52812;48.960;9.108;2023-07-29T09:24:44;4.10;;;1.50;;
3085;SDS011;52812;48.960;9.108;2023-07-29T09:27:23;1.70;;;1.50;;
3085;SDS011;52812;48.960;9.108;2023-07-29T09:29:49;1.47;;;1.20;;
3085;SDS011;52812;48.960;9.108;2023-07-29T09:32:21;1.80;;;1.40;;
3085;SDS011;52812;48.960;9.108;2023-07-29T09:34:48;1.70;;;1.40;;
3085;SDS011;52812;48.960;9.108;2023-07-29T09:37:18;1.30;;;1.20;;
3085;SDS011;52812;48.960;9.108;2023-07-29T09:39:46;1.60;;;1.50;;
3085;SDS011;52812;48.960;9.108;2023-07-29T09:42:20;1.40;;;1.30;;
3085;SDS011;52812;48.960;9.108;2023-07-29T09:44:47;1.70;;;1.50;;
3085;SDS011;52812;48.960;9.108;2023-07-29T09:47:24;2.10;;;1.50;;
3085;SDS011;52812;48.960;9.108;2023-07-29T09:49:51;1.50;;;1.33;;
3085;SDS011;52812;48.960;9.108;2023-07-29T09:52:18;1.73;;;1.50;;
3085;SDS011;52812;48.960;9.108;2023-07-29T09:54:45;2.17;;;1.80;;
3085;SDS011;52812;48.960;9.108;2023-07-29T09:57:13;3.43;;;1.80;;
3085;SDS011;52812;48.960;9.108;2023-07-29T09:59:40;3.67;;;2.43;;
3085;SDS011;52812;48.960;9.108;2023-07-29T10:02:08;3.33;;;1.50;;
3085;SDS011;52812;48.960;9.108;2023-07-29T10:04:43;1.67;;;1.47;;
3085;SDS011;52812;48.960;9.108;2023-07-29T10:07:11;2.13;;;1.60;;
3085;SDS011;52812;48.960;9.108;2023-07-29T10:09:38;2.87;;;1.63;;
3085;SDS011;52812;48.960;9.108;2023-07-29T10:12:05;2.70;;;1.90;;
3085;SDS011;52812;48.960;9.108;2023-07-29T10:14:31;1.47;;;1.37;;
3085;SDS011;52812;48.960;9.108;2023-07-29T10:16:57;1.50;;;1.33;;
3085;SDS011;52812;48.960;9.108;2023-07-29T10:19:24;3.43;;;1.80;;
3085;SDS011;52812;48.960;9.108;2023-07-29T10:21:51;2.10;;;1.70;;
3085;SDS011;52812;48.960;9.108;2023-07-29T10:24:22;1.90;;;1.70;;
3085;SDS011;52812;48.960;9.108;2023-07-29T10:26:54;2.00;;;1.80;;
3085;SDS011;52812;48.960;9.108;2023-07-29T10:29:22;1.80;;;1.60;;
3085;SDS011;52812;48.960;9.108;2023-07-29T10:31:50;1.97;;;1.77;;
3085;SDS011;52812;48.960;9.108;2023-07-29T10:34:18;2.00;;;1.80;;
3085;SDS011;52812;48.960;9.108;2023-07-29T10:36:46;2.07;;;1.87;;
3085;SDS011;52812;48.960;9.108;2023-07-29T10:39:13;2.80;;;1.90;;
3085;SDS011;52812;48.960;9.108;2023-07-29T10:47:14;1.53;;;1.37;;
3085;SDS011;52812;48.960;9.108;2023-07-29T10:49:41;1.47;;;1.37;;
3085;SDS011;52812;48.960;9.108;2023-07-29T10:52:08;2.00;;;1.80;;
3085;SDS011;52812;48.960;9.108;2023-07-29T10:54:43;1.87;;;1.50;;
3085;SDS011;52812;48.960;9.108;2023-07-29T10:57:14;2.60;;;1.57;;
3085;SDS011;52812;48.960;9.108;2023-07-29T10:59:40;2.80;;;1.50;;
3085;SDS011;52812;48.960;9.108;2023-07-29T11:02:17;1.70;;;1.60;;
3085;SDS011;52812;48.960;9.108;2023-07-29T11:04:50;2.33;;;1.40;;
3085;SDS011;52812;48.960;9.108;2023-07-29T11:15:03;1.60;;;1.50;;
3085;SDS011;52812;48.960;9.108;2023-07-29T11:17:30;1.47;;;1.37;;
3085;SDS011;52812;48.960;9.108;2023-07-29T11:20:00;1.50;;;1.40;;
3085;SDS011;52812;48.960;9.108;2023-07-29T11:22:26;3.53;;;1.50;;
3085;SDS011;52812;48.960;9.108;2023-07-29T11:24:53;2.00;;;1.40;;
3085;SDS011;52812;48.960;9.108;2023-07-29T11:27:19;1.70;;;1.23;;
3085;SDS011;52812;48.960;9.108;2023-07-29T11:29:46;1.50;;;1.40;;
3085;SDS011;52812;48.960;9.108;2023-07-29T11:32:12;1.50;;;1.40;;
3085;SDS011;52812;48.960;9.108;2023-07-29T11:34:38;1.43;;;1.33;;
3085;SDS011;52812;48.960;9.108;2023-07-29T11:37:05;1.53;;;1.40;;
3085;SDS011;52812;48.960;9.108;2023-07-29T11:39:38;1.60;;;1.50;;
3085;SDS011;52812;48.960;9.108;2023-07-29T11:42:12;1.63;;;1.50;;
3085;SDS011;52812;48.960;9.108;2023-07-29T11:44:39;1.57;;;1.37;;
3085;SDS011;52812;48.960;9.108;2023-07-29T11:47:06;3.10;;;1.40;;
3085;SDS011;52812;48.960;9.108;2023-07-29T11:49:35;1.80;;;1.60;;
3085;SDS011;52812;48.960;9.108;2023-07-29T11:52:02;1.40;;;1.30;;
3085;SDS011;52812;48.960;9.108;2023-07-29T11:54:28;1.40;;;1.30;;
3085;SDS011;52812;48.960;9.108;2023-07-29T11:56:55;1.93;;;1.50;;
3085;SDS011;52812;48.960;9.108;2023-07-29T11:59:21;1.50;;;1.40;;
3085;SDS011;52812;48.960;9.108;2023-07-29T12:01:47;1.60;;;1.43;;
3085;SDS011;52812;48.960;9.108;2023-07-29T12:04:13;1.53;;;1.30;;
3085;SDS011;52812;48.960;9.108;2023-07-29T12:06:39;1.57;;;1.40;;
3085;SDS011;52812;48.960;9.108;2023-07-29T12:09:05;2.20;;;1.43;;
3085;SDS011;52812;48.960;9.108;2023-07-29T12:11:32;1.60;;;1.47;;
3085;SDS011;52812;48.960;9.108;2023-07-29T12:13:59;1.60;;;1.50;;
3085;SDS011;52812;48.960;9.108;2023-07-29T12:16:25;1.37;;;1.27;;
3085;SDS011;52812;48.960;9.108;2023-07-29T12:18:51;1.70;;;1.60;;
3085;SDS011;52812;48.960;9.108;2023-07-29T12:21:17;2.10;;;1.70;;
3085;SDS011;52812;48.960;9.108;2023-07-29T12:23:44;1.67;;;1.50;;
3085;SDS011;52812;48.960;9.108;2023-07-29T12:26:09;2.13;;;1.67;;
3085;SDS011;52812;48.960;9.108;2023-07-29T12:28:35;1.60;;;1.50;;
3085;SDS011;52812;48.960;9.108;2023-07-29T12:31:01;1.53;;;1.40;;
3085;SDS011;52812;48.960;9.108;2023-07-29T12:33:30;1.60;;;1.50;;
3085;SDS011;52812;48.960;9.108;2023-07-29T12:35:59;2.13;;;1.90;;
3085;SDS011;52812;48.960;9.108;2023-07-29T12:38:28;2.10;;;1.53;;
3085;SDS011;52812;48.960;9.108;2023-07-29T12:40:54;1.93;;;1.67;;
3085;SDS011;52812;48.960;9.108;2023-07-29T12:43:21;1.87;;;1.63;;
3085;SDS011;52812;48.960;9.108;2023-07-29T12:45:48;1.77;;;1.67;;
3085;SDS011;52812;48.960;9.108;2023-07-29T12:48:14;1.70;;;1.60;;
3085;SDS011;52812;48.960;9.108;2023-07-29T12:50:40;1.70;;;1.60;;
3085;SDS011;52812;48.960;9.108;2023-07-29T12:53:06;4.03;;;1.70;;
3085;SDS011;52812;48.960;9.108;2023-07-29T12:55:32;2.07;;;1.87;;
3085;SDS011;52812;48.960;9.108;2023-07-29T12:57:59;3.13;;;2.07;;
3085;SDS011;52812;48.960;9.108;2023-07-29T13:00:25;1.83;;;1.73;;
3085;SDS011;52812;48.960;9.108;2023-07-29T13:02:50;2.27;;;1.90;;
3085;SDS011;52812;48.960;9.108;2023-07-29T13:05:16;2.80;;;2.60;;
3085;SDS011;52812;48.960;9.108;2023-07-29T13:07:42;2.93;;;2.10;;
3085;SDS011;52812;48.960;9.108;2023-07-29T13:10:09;2.40;;;1.73;;
3085;SDS011;52812;48.960;9.108;2023-07-29T13:12:35;2.23;;;1.97;;
3085;SDS011;52812;48.960;9.108;2023-07-29T13:15:00;2.20;;;2.00;;
3085;SDS011;52812;48.960;9.108;2023-07-29T13:17:26;2.17;;;1.97;;
3085;SDS011;52812;48.960;9.108;2023-07-29T13:19:52;2.70;;;1.87;;
3085;SDS011;52812;48.960;9.108;2023-07-29T13:22:19;2.20;;;2.00;;
3085;SDS011;52812;48.960;9.108;2023-07-29T13:24:45;2.40;;;1.93;;
3085;SDS011;52812;48.960;9.108;2023-07-29T13:27:10;2.00;;;1.80;;
3085;SDS011;52812;48.960;9.108;2023-07-29T13:29:36;3.47;;;2.10;;
3085;SDS011;52812;48.960;9.108;2023-07-29T13:32:02;1.67;;;1.57;;
3085;SDS011;52812;48.960;9.108;2023-07-29T13:34:28;2.40;;;2.10;;
3085;SDS011;52812;48.960;9.108;2023-07-29T13:36:53;2.10;;;1.90;;
3085;SDS011;52812;48.960;9.108;2023-07-29T13:39:19;2.47;;;2.20;;
3085;SDS011;52812;48.960;9.108;2023-07-29T13:41:45;2.30;;;1.70;;
3085;SDS011;52812;48.960;9.108;2023-07-29T13:44:10;2.10;;;1.63;;
3085;SDS011;52812;48.960;9.108;2023-07-29T13:46:36;1.70;;;1.60;;
3085;SDS011;52812;48.960;9.108;2023-07-29T13:49:01;1.93;;;1.80;;
3085;SDS011;52812;48.960;9.108;2023-07-29T13:51:28;5.40;;;2.33;;
3085;SDS011;52812;48.960;9.108;2023-07-29T13:53:53;2.17;;;1.97;;
3085;SDS011;52812;48.960;9.108;2023-07-29T13:56:21;1.93;;;1.73;;
3085;SDS011;52812;48.960;9.108;2023-07-29T13:58:46;2.70;;;1.70;;
3085;SDS011;52812;48.960;9.108;2023-07-29T14:01:12;1.80;;;1.67;;
3085;SDS011;52812;48.960;9.108;2023-07-29T14:03:38;1.70;;;1.60;;
3085;SDS011;52812;48.960;9.108;2023-07-29T14:06:03;1.63;;;1.53;;
3085;SDS011;52812;48.960;9.108;2023-07-29T14:08:29;1.60;;;1.50;;
3085;SDS011;52812;48.960;9.108;2023-07-29T14:10:55;1.83;;;1.73;;
3085;SDS011;52812;48.960;9.108;2023-07-29T14:13:21;1.80;;;1.70;;
3085;SDS011;52812;48.960;9.108;2023-07-29T14:15:46;2.10;;;1.90;;
3085;SDS011;52812;48.960;9.108;2023-07-29T14:18:12;1.87;;;1.67;;
3085;SDS011;52812;48.960;9.108;2023-07-29T14:20:38;1.93;;;1.73;;
3085;SDS011;52812;48.960;9.108;2023-07-29T14:23:04;3.00;;;1.90;;
3085;SDS011;52812;48.960;9.108;2023-07-29T14:25:29;2.50;;;1.97;;
3085;SDS011;52812;48.960;9.108;2023-07-29T14:27:55;1.80;;;1.70;;
3085;SDS011;52812;48.960;9.108;2023-07-29T14:30:21;1.70;;;1.60;;
3085;SDS011;52812;48.960;9.108;2023-07-29T14:32:46;5.10;;;1.90;;
3085;SDS011;52812;48.960;9.108;2023-07-29T14:35:12;1.70;;;1.60;;
3085;SDS011;52812;48.960;9.108;2023-07-29T14:37:37;2.17;;;1.97;;
3085;SDS011;52812;48.960;9.108;2023-07-29T14:40:03;2.87;;;1.90;;
3085;SDS011;52812;48.960;9.108;2023-07-29T14:42:30;2.93;;;1.90;;
3085;SDS011;52812;48.960;9.108;2023-07-29T14:44:55;2.17;;;1.97;;
3085;SDS011;52812;48.960;9.108;2023-07-29T14:47:21;1.90;;;1.67;;
3085;SDS011;52812;48.960;9.108;2023-07-29T14:49:47;4.00;;;2.30;;
3085;SDS011;52812;48.960;9.108;2023-07-29T14:52:12;2.00;;;1.80;;
3085;SDS011;52812;48.960;9.108;2023-07-29T14:54:38;1.93;;;1.73;;
3085;SDS011;52812;48.960;9.108;2023-07-29T14:57:05;2.80;;;1.90;;
3085;SDS011;52812;48.960;9.108;2023-07-29T14:59:32;2.20;;;2.00;;
3085;SDS011;52812;48.960;9.108;2023-07-29T15:01:57;2.60;;;2.30;;
3085;SDS011;52812;48.960;9.108;2023-07-29T15:04:23;2.17;;;1.97;;
3085;SDS011;52812;48.960;9.108;2023-07-29T15:06:50;1.97;;;1.77;;
3085;SDS011;52812;48.960;9.108;2023-07-29T15:09:15;2.23;;;1.83;;
3085;SDS011;52812;48.960;9.108;2023-07-29T15:11:44;2.27;;;2.03;;
3085;SDS011;52812;48.960;9.108;2023-07-29T15:14:10;1.90;;;1.60;;
3085;SDS011;52812;48.960;9.108;2023-07-29T15:16:35;2.97;;;1.80;;